Time;durP1;ratioP1;P1;durP2;ratioP2;P2;SDS_P1;SDS_P2;PMS_P1;PMS_P2;Temp;Humidity;BMP_temperature;BMP_pressure;BME280_temperature;BME280_humidity;BME280_pressure;Samples;Min_cycle;Max_cycle;Signal;HPM_P1;HPM_P2
2022/01/05 00:00:31;;;;;;;0.55;0.20;;;;;;;;;;5031841;28;20053;-63
2022/01/05 00:02:56;;;;;;;1.37;0.40;;;;;;;;;;5032616;28;20036;-65
2022/01/05 00:05:21;;;;;;;0.73;0.40;;;;;;;;;;5035079;28;20361;-64
2022/01/05 00:07:46;;;;;;;0.68;0.10;;;;;;;;;;5035324;28;20258;-65
2022/01/05 00:10:11;;;;;;;0.30;0.17;;;;;;;;;;5035528;28;20025;-64
2022/01/05 00:12:37;;;;;;;0.17;0.10;;;;;;;;;;5035447;28;20391;-65
2022/01/05 00:15:03;;;;;;;0.63;0.20;;;;;;;;;;5035158;28;20249;-64
2022/01/05 00:17:29;;;;;;;0.88;0.30;;;;;;;;;;5035026;28;20032;-64
2022/01/05 00:19:54;;;;;;;0.40;0.20;;;;;;;;;;5017372;28;20025;-64
2022/01/05 00:22:19;;;;;;;0.82;0.30;;;;;;;;;;5035158;28;20021;-64
2022/01/05 00:24:46;;;;;;;0.20;0.10;;;;;;;;;;5043739;28;20459;-64
2022/01/05 00:27:11;;;;;;;1.30;0.30;;;;;;;;;;5055206;28;20723;-65
2022/01/05 00:29:36;;;;;;;0.43;0.20;;;;;;;;;;5054853;28;20108;-64
2022/01/05 00:32:01;;;;;;;0.57;0.20;;;;;;;;;;5054695;28;20090;-64
2022/01/05 00:34:26;;;;;;;0.40;0.20;;;;;;;;;;5054829;28;20274;-64
2022/01/05 00:36:52;;;;;;;1.03;0.30;;;;;;;;;;5054802;28;20537;-64
2022/01/05 00:39:17;;;;;;;0.95;0.20;;;;;;;;;;5054615;28;20246;-65
2022/01/05 00:41:42;;;;;;;0.38;0.15;;;;;;;;;;5054711;28;20052;-65
2022/01/05 00:44:07;;;;;;;1.30;0.10;;;;;;;;;;5054564;28;20025;-64
2022/01/05 00:46:32;;;;;;;0.53;0.30;;;;;;;;;;5054961;28;20254;-64
2022/01/05 00:48:57;;;;;;;0.53;0.40;;;;;;;;;;5054361;28;20249;-65
2022/01/05 00:51:23;;;;;;;0.75;0.22;;;;;;;;;;5054409;28;20659;-65
2022/01/05 00:53:48;;;;;;;0.57;0.20;;;;;;;;;;5054435;28;20062;-65
2022/01/05 00:56:13;;;;;;;0.77;0.30;;;;;;;;;;5054380;28;20253;-65
2022/01/05 00:58:38;;;;;;;0.47;0.10;;;;;;;;;;5054433;28;20703;-64
2022/01/05 01:01:03;;;;;;;0.25;0.20;;;;;;;;;;5054270;28;20483;-64
2022/01/05 01:03:29;;;;;;;0.45;0.40;;;;;;;;;;5053975;28;20123;-64
2022/01/05 01:05:54;;;;;;;1.10;0.20;;;;;;;;;;5036237;28;20033;-65
2022/01/05 01:08:19;;;;;;;0.85;0.20;;;;;;;;;;5054160;28;20250;-65
2022/01/05 01:10:46;;;;;;;0.17;0.10;;;;;;;;;;5054095;28;20067;-65
2022/01/05 01:13:16;;;;;;;1.25;0.20;;;;;;;;;;5054019;28;20612;-66
2022/01/05 01:15:42;;;;;;;0.38;0.10;;;;;;;;;;5054319;28;20013;-64
2022/01/05 01:18:07;;;;;;;1.02;0.10;;;;;;;;;;5054199;28;20380;-64
2022/01/05 01:20:32;;;;;;;0.50;0.20;;;;;;;;;;5054026;28;20323;-64
2022/01/05 01:22:57;;;;;;;0.40;0.15;;;;;;;;;;5053779;28;20250;-65
2022/01/05 01:25:23;;;;;;;1.05;0.10;;;;;;;;;;5039760;28;20032;-65
2022/01/05 01:27:48;;;;;;;1.35;0.20;;;;;;;;;;5033928;28;20103;-64
2022/01/05 01:30:13;;;;;;;1.23;0.27;;;;;;;;;;5033741;28;20037;-65
2022/01/05 01:32:38;;;;;;;0.53;0.20;;;;;;;;;;5033912;28;20282;-65
2022/01/05 01:35:05;;;;;;;1.17;0.20;;;;;;;;;;5033620;28;20243;-64
2022/01/05 01:37:30;;;;;;;1.42;0.35;;;;;;;;;;5033597;28;20032;-64
2022/01/05 01:39:55;;;;;;;1.27;0.30;;;;;;;;;;5033617;28;20029;-64
2022/01/05 01:42:20;;;;;;;1.88;0.20;;;;;;;;;;5033601;28;20718;-65
2022/01/05 01:44:45;;;;;;;1.08;0.50;;;;;;;;;;5033566;28;20030;-66
2022/01/05 01:47:10;;;;;;;0.55;0.20;;;;;;;;;;5033443;28;20028;-65
2022/01/05 01:49:36;;;;;;;1.03;0.13;;;;;;;;;;5033404;28;20037;-65
2022/01/05 01:52:01;;;;;;;0.50;0.30;;;;;;;;;;5033297;28;20277;-64
2022/01/05 01:54:28;;;;;;;0.57;0.20;;;;;;;;;;5033452;28;20456;-63
2022/01/05 01:56:53;;;;;;;1.77;0.20;;;;;;;;;;5033247;28;20254;-65
2022/01/05 01:59:18;;;;;;;0.32;0.17;;;;;;;;;;5033454;28;20457;-64
2022/01/05 02:01:44;;;;;;;0.73;0.20;;;;;;;;;;5033522;28;20025;-63
2022/01/05 02:04:09;;;;;;;1.23;0.22;;;;;;;;;;5047391;22;20155;-64
2022/01/05 02:06:34;;;;;;;0.65;0.20;;;;;;;;;;5053166;28;20061;-65
2022/01/05 02:08:59;;;;;;;0.70;0.40;;;;;;;;;;5052766;28;20052;-64
2022/01/05 02:11:26;;;;;;;1.38;0.38;;;;;;;;;;5053004;28;20044;-63
2022/01/05 02:13:52;;;;;;;1.95;0.10;;;;;;;;;;5052866;28;20017;-64
2022/01/05 02:16:21;;;;;;;1.73;0.60;;;;;;;;;;5052920;28;20025;-65
2022/01/05 02:19:19;;;;;;;0.10;0.10;;;;;;;;;;5052872;28;20258;-64
2022/01/05 02:21:38;;;;;;;1.02;0.20;;;;;;;;;;5050730;28;20071;-66
2022/01/05 02:24:04;;;;;;;0.95;0.25;;;;;;;;;;5052608;28;20044;-65
2022/01/05 02:26:30;;;;;;;0.82;0.10;;;;;;;;;;5052352;28;20023;-64
2022/01/05 02:28:55;;;;;;;0.70;0.20;;;;;;;;;;5052593;28;20099;-64
2022/01/05 02:31:20;;;;;;;1.15;0.35;;;;;;;;;;5052477;28;20448;-65
2022/01/05 02:33:45;;;;;;;0.10;0.10;;;;;;;;;;5052660;28;20020;-64
2022/01/05 02:36:14;;;;;;;0.37;0.30;;;;;;;;;;5052577;28;20163;-64
2022/01/05 02:38:39;;;;;;;1.10;0.50;;;;;;;;;;5052761;28;20251;-65
2022/01/05 02:41:07;;;;;;;0.60;0.40;;;;;;;;;;5052663;28;20071;-64
2022/01/05 02:43:33;;;;;;;1.52;0.50;;;;;;;;;;5052415;28;20266;-65
2022/01/05 02:45:58;;;;;;;0.20;0.10;;;;;;;;;;5052313;28;20104;-65
2022/01/05 02:48:23;;;;;;;1.85;0.20;;;;;;;;;;5052515;28;20095;-65
2022/01/05 02:50:48;;;;;;;0.90;0.20;;;;;;;;;;5052273;28;20033;-64
2022/01/05 02:53:13;;;;;;;0.68;0.30;;;;;;;;;;5052196;28;20099;-63
2022/01/05 02:55:39;;;;;;;0.40;0.30;;;;;;;;;;5052435;28;20020;-64
2022/01/05 02:58:04;;;;;;;1.23;0.32;;;;;;;;;;5052120;28;20372;-65
2022/01/05 03:00:29;;;;;;;0.43;0.10;;;;;;;;;;5052396;28;20078;-65
2022/01/05 03:02:54;;;;;;;0.20;0.10;;;;;;;;;;5052164;28;20713;-65
2022/01/05 03:05:19;;;;;;;0.37;0.10;;;;;;;;;;5052003;28;20282;-65
2022/01/05 03:07:45;;;;;;;0.77;0.30;;;;;;;;;;5052183;28;20716;-64
2022/01/05 03:10:11;;;;;;;0.63;0.03;;;;;;;;;;5052103;28;20075;-64
2022/01/05 03:12:37;;;;;;;1.75;0.35;;;;;;;;;;5052258;28;20021;-64
2022/01/05 03:15:04;;;;;;;0.40;0.17;;;;;;;;;;5052054;28;20100;-65
2022/01/05 03:17:29;;;;;;;0.98;0.13;;;;;;;;;;5051997;28;20017;-64
2022/01/05 03:19:54;;;;;;;0.20;0.07;;;;;;;;;;5051977;28;20544;-64
2022/01/05 03:22:19;;;;;;;0.35;0.20;;;;;;;;;;5052113;28;20265;-64
2022/01/05 03:24:44;;;;;;;0.93;0.33;;;;;;;;;;5052030;28;20484;-63
2022/01/05 03:27:09;;;;;;;0.28;0.10;;;;;;;;;;5051935;28;20295;-65
2022/01/05 03:29:34;;;;;;;0.53;0.20;;;;;;;;;;5051880;28;20033;-65
2022/01/05 03:32:00;;;;;;;1.13;0.20;;;;;;;;;;5051905;28;20250;-65
2022/01/05 03:34:26;;;;;;;0.40;0.20;;;;;;;;;;5051993;28;20057;-65
2022/01/05 03:36:51;;;;;;;0.30;0.10;;;;;;;;;;5051902;28;20254;-64
2022/01/05 03:39:17;;;;;;;0.85;0.20;;;;;;;;;;5055070;28;20095;-64
2022/01/05 03:41:42;;;;;;;0.80;0.30;;;;;;;;;;5056136;28;20418;-64
2022/01/05 03:44:07;;;;;;;0.80;0.20;;;;;;;;;;5055695;28;20529;-63
2022/01/05 03:46:32;;;;;;;0.85;0.38;;;;;;;;;;5055824;28;20092;-65
2022/01/05 03:48:58;;;;;;;0.37;0.10;;;;;;;;;;5055597;28;20027;-65
2022/01/05 03:51:23;;;;;;;1.33;0.30;;;;;;;;;;5055531;28;20270;-65
2022/01/05 03:53:48;;;;;;;0.10;0.03;;;;;;;;;;5055587;28;20286;-65
2022/01/05 03:56:13;;;;;;;1.20;0.50;;;;;;;;;;5055525;28;20036;-64
2022/01/05 03:58:38;;;;;;;0.50;0.28;;;;;;;;;;5055665;28;20032;-65
2022/01/05 04:01:04;;;;;;;0.32;0.20;;;;;;;;;;5055364;28;20108;-64
2022/01/05 04:03:29;;;;;;;0.50;0.13;;;;;;;;;;5055142;28;20029;-64
2022/01/05 04:05:54;;;;;;;1.90;0.55;;;;;;;;;;5055300;28;20021;-64
2022/01/05 04:08:19;;;;;;;1.00;0.20;;;;;;;;;;5055400;28;20024;-63
2022/01/05 04:10:44;;;;;;;0.52;0.13;;;;;;;;;;5055223;28;20364;-65
2022/01/05 04:13:10;;;;;;;0.15;0.10;;;;;;;;;;5055257;28;20018;-65
2022/01/05 04:15:35;;;;;;;0.10;0.10;;;;;;;;;;5055217;28;20017;-65
2022/01/05 04:18:00;;;;;;;0.10;0.00;;;;;;;;;;5055135;28;20052;-65
2022/01/05 04:20:25;;;;;;;0.57;0.40;;;;;;;;;;5055131;28;20067;-64
2022/01/05 04:22:51;;;;;;;1.10;0.40;;;;;;;;;;5055061;28;20084;-65
2022/01/05 04:25:16;;;;;;;0.30;0.22;;;;;;;;;;5054914;28;20524;-65
2022/01/05 04:27:41;;;;;;;2.17;0.30;;;;;;;;;;5055022;28;20037;-65
2022/01/05 04:30:07;;;;;;;0.95;0.40;;;;;;;;;;5054857;28;20020;-64
2022/01/05 04:32:34;;;;;;;0.30;0.30;;;;;;;;;;5053589;28;20029;-66
2022/01/05 04:34:59;;;;;;;0.20;0.10;;;;;;;;;;5054798;28;20017;-65
2022/01/05 04:37:24;;;;;;;0.20;0.20;;;;;;;;;;5054716;28;20036;-64
2022/01/05 04:39:50;;;;;;;0.68;0.32;;;;;;;;;;5054752;28;20281;-65
2022/01/05 04:42:15;;;;;;;0.40;0.10;;;;;;;;;;5054696;28;20028;-66
2022/01/05 04:44:40;;;;;;;0.13;0.10;;;;;;;;;;5054838;28;20422;-65
2022/01/05 04:47:07;;;;;;;0.35;0.10;;;;;;;;;;5054508;28;20028;-64
2022/01/05 04:49:32;;;;;;;0.50;0.20;;;;;;;;;;5053937;28;20432;-64
2022/01/05 04:51:57;;;;;;;0.43;0.17;;;;;;;;;;5054492;28;20043;-65
2022/01/05 04:54:23;;;;;;;0.98;0.13;;;;;;;;;;5054562;28;20099;-64
2022/01/05 04:56:48;;;;;;;0.25;0.10;;;;;;;;;;5054507;28;20021;-64
2022/01/05 04:59:13;;;;;;;0.10;0.10;;;;;;;;;;5054295;28;20067;-63
2022/01/05 05:01:38;;;;;;;0.65;0.20;;;;;;;;;;5054452;28;20543;-65
2022/01/05 05:04:03;;;;;;;0.93;0.30;;;;;;;;;;5054448;28;20033;-65
2022/01/05 05:06:29;;;;;;;0.10;0.10;;;;;;;;;;5054313;28;20461;-65
2022/01/05 05:08:54;;;;;;;0.28;0.10;;;;;;;;;;5054089;28;20252;-65
2022/01/05 05:11:19;;;;;;;0.55;0.15;;;;;;;;;;5054020;28;20025;-66
2022/01/05 05:13:44;;;;;;;0.57;0.10;;;;;;;;;;5054174;28;20033;-65
2022/01/05 05:16:09;;;;;;;0.57;0.20;;;;;;;;;;5054319;28;20250;-65
2022/01/05 05:18:35;;;;;;;0.55;0.30;;;;;;;;;;5054165;28;20250;-65
2022/01/05 05:21:01;;;;;;;1.60;0.25;;;;;;;;;;5053856;28;20029;-65
2022/01/05 05:23:26;;;;;;;0.47;0.17;;;;;;;;;;5053874;28;20020;-64
2022/01/05 05:25:51;;;;;;;1.33;0.20;;;;;;;;;;5053781;28;20206;-64
2022/01/05 05:28:16;;;;;;;1.10;0.13;;;;;;;;;;5053875;28;20254;-64
2022/01/05 05:30:42;;;;;;;0.57;0.10;;;;;;;;;;5053848;28;20032;-65
2022/01/05 05:33:07;;;;;;;1.35;0.22;;;;;;;;;;5053712;28;20246;-65
2022/01/05 05:35:32;;;;;;;0.93;0.10;;;;;;;;;;5053644;28;20100;-64
2022/01/05 05:37:58;;;;;;;0.83;0.20;;;;;;;;;;5053816;28;20242;-64
2022/01/05 05:40:24;;;;;;;1.13;0.13;;;;;;;;;;5053666;28;20250;-63
2022/01/05 05:42:49;;;;;;;0.10;0.00;;;;;;;;;;5053552;28;20456;-63
2022/01/05 05:45:15;;;;;;;0.30;0.17;;;;;;;;;;5053685;28;20021;-65
2022/01/05 05:47:40;;;;;;;0.35;0.20;;;;;;;;;;5052200;28;20116;-65
2022/01/05 05:50:05;;;;;;;0.20;0.13;;;;;;;;;;5053337;28;20092;-64
2022/01/05 05:52:30;;;;;;;0.70;0.30;;;;;;;;;;5053483;28;20242;-65
2022/01/05 05:54:55;;;;;;;0.20;0.17;;;;;;;;;;5053248;28;20021;-64
2022/01/05 05:57:21;;;;;;;1.10;0.45;;;;;;;;;;5053169;28;20376;-64
2022/01/05 05:59:46;;;;;;;0.20;0.10;;;;;;;;;;5053063;28;20562;-64
2022/01/05 06:02:11;;;;;;;0.57;0.10;;;;;;;;;;5052692;28;20074;-64
2022/01/05 06:04:36;;;;;;;0.88;0.20;;;;;;;;;;5052990;28;20749;-65
2022/01/05 06:07:02;;;;;;;0.43;0.25;;;;;;;;;;5051684;28;20071;-64
2022/01/05 06:09:27;;;;;;;0.63;0.35;;;;;;;;;;5052862;28;20021;-65
2022/01/05 06:11:52;;;;;;;0.32;0.03;;;;;;;;;;5053027;28;20384;-65
2022/01/05 06:14:17;;;;;;;1.07;0.17;;;;;;;;;;5053004;28;20021;-64
2022/01/05 06:16:43;;;;;;;0.22;0.10;;;;;;;;;;5053053;28;20605;-64
2022/01/05 06:19:08;;;;;;;0.93;0.17;;;;;;;;;;5052841;28;20454;-63
2022/01/05 06:21:33;;;;;;;0.65;0.15;;;;;;;;;;5052748;28;20060;-63
2022/01/05 06:23:58;;;;;;;0.57;0.07;;;;;;;;;;5052643;28;20036;-64
2022/01/05 06:26:24;;;;;;;0.17;0.10;;;;;;;;;;5052890;28;20285;-63
2022/01/05 06:28:50;;;;;;;0.77;0.20;;;;;;;;;;5052731;28;20036;-63
2022/01/05 06:31:15;;;;;;;0.75;0.20;;;;;;;;;;5052525;28;20296;-64
2022/01/05 06:33:40;;;;;;;1.65;0.40;;;;;;;;;;5052652;28;20119;-64
2022/01/05 06:36:06;;;;;;;0.30;0.30;;;;;;;;;;5052510;28;20084;-63
2022/01/05 06:38:31;;;;;;;0.23;0.13;;;;;;;;;;5052668;28;20287;-63
2022/01/05 06:40:56;;;;;;;1.00;0.30;;;;;;;;;;5052377;28;20250;-64
2022/01/05 06:43:21;;;;;;;0.30;0.10;;;;;;;;;;5052426;28;20036;-64
2022/01/05 06:45:46;;;;;;;0.87;0.20;;;;;;;;;;5052398;28;20293;-64
2022/01/05 06:48:12;;;;;;;1.45;0.20;;;;;;;;;;5052488;28;20295;-63
2022/01/05 06:50:37;;;;;;;1.55;0.20;;;;;;;;;;5052738;28;20053;-65
2022/01/05 06:53:02;;;;;;;0.53;0.17;;;;;;;;;;5052348;28;20416;-64
2022/01/05 06:55:27;;;;;;;0.17;0.10;;;;;;;;;;5052240;28;20369;-64
2022/01/05 06:57:53;;;;;;;0.35;0.17;;;;;;;;;;5052195;28;20071;-64
2022/01/05 07:00:18;;;;;;;0.40;0.20;;;;;;;;;;5052315;28;20068;-64
2022/01/05 07:02:43;;;;;;;0.80;0.20;;;;;;;;;;5052306;28;20388;-64
2022/01/05 07:05:09;;;;;;;0.63;0.43;;;;;;;;;;5045545;28;20447;-63
2022/01/05 07:07:35;;;;;;;1.10;0.20;;;;;;;;;;5050662;28;20264;-63
2022/01/05 07:10:00;;;;;;;0.77;0.32;;;;;;;;;;5051095;28;20029;-64
2022/01/05 07:12:25;;;;;;;0.45;0.10;;;;;;;;;;5054672;28;20105;-64
2022/01/05 07:14:50;;;;;;;0.20;0.10;;;;;;;;;;5058285;28;20072;-65
2022/01/05 07:17:15;;;;;;;0.53;0.10;;;;;;;;;;5057899;28;20254;-64
2022/01/05 07:19:40;;;;;;;1.70;0.50;;;;;;;;;;5058039;28;20277;-65
2022/01/05 07:22:06;;;;;;;0.50;0.17;;;;;;;;;;5057263;28;20418;-65
2022/01/05 07:24:31;;;;;;;0.20;0.10;;;;;;;;;;5058336;28;20103;-63
2022/01/05 07:26:56;;;;;;;0.25;0.20;;;;;;;;;;5057371;28;20028;-63
2022/01/05 07:29:21;;;;;;;0.28;0.20;;;;;;;;;;5057069;28;20025;-62
2022/01/05 07:31:46;;;;;;;0.32;0.10;;;;;;;;;;5058210;28;20033;-62
2022/01/05 07:34:12;;;;;;;0.38;0.10;;;;;;;;;;5057702;28;20028;-62
2022/01/05 07:36:39;;;;;;;0.73;0.10;;;;;;;;;;5060367;28;20028;-63
2022/01/05 07:39:05;;;;;;;0.70;0.10;;;;;;;;;;5057631;28;20280;-62
2022/01/05 07:41:30;;;;;;;0.25;0.10;;;;;;;;;;5058113;28;20107;-62
2022/01/05 07:43:55;;;;;;;2.33;0.43;;;;;;;;;;5057530;28;20021;-62
2022/01/05 07:46:20;;;;;;;1.30;0.25;;;;;;;;;;5055941;28;20025;-63
2022/01/05 07:48:46;;;;;;;0.35;0.20;;;;;;;;;;5058055;28;20060;-63
2022/01/05 07:51:11;;;;;;;1.13;0.10;;;;;;;;;;5057465;28;20029;-63
2022/01/05 07:53:36;;;;;;;1.55;0.17;;;;;;;;;;5058192;28;20017;-62
2022/01/05 07:56:01;;;;;;;0.10;0.10;;;;;;;;;;5057763;28;20036;-63
2022/01/05 07:58:27;;;;;;;0.47;0.17;;;;;;;;;;5056085;28;20035;-62
2022/01/05 08:00:52;;;;;;;0.68;0.17;;;;;;;;;;5057056;28;20262;-62
2022/01/05 08:03:17;;;;;;;0.25;0.10;;;;;;;;;;5057187;28;20025;-63
2022/01/05 08:05:43;;;;;;;0.55;0.17;;;;;;;;;;5057679;28;20483;-63
2022/01/05 08:08:08;;;;;;;1.30;0.30;;;;;;;;;;5055795;28;20052;-62
2022/01/05 08:10:33;;;;;;;0.43;0.20;;;;;;;;;;5057003;28;20281;-62
2022/01/05 08:12:58;;;;;;;0.82;0.20;;;;;;;;;;5056969;28;20048;-63
2022/01/05 08:15:23;;;;;;;0.47;0.28;;;;;;;;;;5056423;28;20096;-63
2022/01/05 08:17:48;;;;;;;0.50;0.20;;;;;;;;;;5055514;28;20024;-63
2022/01/05 08:20:14;;;;;;;0.60;0.20;;;;;;;;;;5056604;28;20270;-63
2022/01/05 08:22:43;;;;;;;0.40;0.30;;;;;;;;;;5055307;28;20395;-63
2022/01/05 08:25:09;;;;;;;1.02;0.35;;;;;;;;;;5049931;28;20016;-63
2022/01/05 08:27:35;;;;;;;0.68;0.08;;;;;;;;;;5051074;28;20422;-61
2022/01/05 08:30:04;;;;;;;0.68;0.30;;;;;;;;;;5053808;28;20464;-62
2022/01/05 08:32:29;;;;;;;0.65;0.30;;;;;;;;;;5052848;28;20032;-63
2022/01/05 08:34:55;;;;;;;0.98;0.20;;;;;;;;;;5053182;28;20017;-63
2022/01/05 08:37:20;;;;;;;0.80;0.40;;;;;;;;;;5052847;28;20029;-63
2022/01/05 08:39:49;;;;;;;0.82;0.30;;;;;;;;;;5053185;28;20049;-62
2022/01/05 08:42:14;;;;;;;0.40;0.20;;;;;;;;;;5052229;28;20372;-62
2022/01/05 08:44:40;;;;;;;1.07;0.33;;;;;;;;;;5051386;28;20021;-63
2022/01/05 08:47:05;;;;;;;0.77;0.43;;;;;;;;;;5052570;28;20364;-62
2022/01/05 08:49:30;;;;;;;1.75;0.52;;;;;;;;;;5052587;28;20053;-62
2022/01/05 08:51:56;;;;;;;0.70;0.50;;;;;;;;;;5049076;28;20088;-62
2022/01/05 08:54:21;;;;;;;1.02;0.43;;;;;;;;;;5048940;28;20045;-63
2022/01/05 08:56:46;;;;;;;0.70;0.50;;;;;;;;;;5051529;28;20582;-62
2022/01/05 08:59:11;;;;;;;1.77;0.52;;;;;;;;;;5052141;28;20056;-62
2022/01/05 09:01:36;;;;;;;1.23;0.60;;;;;;;;;;5051807;28;20028;-63
2022/01/05 09:04:01;;;;;;;2.23;0.40;;;;;;;;;;5051987;28;20278;-62
2022/01/05 09:06:27;;;;;;;0.47;0.40;;;;;;;;;;5053892;28;20721;-61
2022/01/05 09:08:52;;;;;;;0.82;0.60;;;;;;;;;;5052002;28;20032;-64
2022/01/05 09:11:17;;;;;;;0.40;0.40;;;;;;;;;;5051965;28;20024;-62
2022/01/05 09:13:42;;;;;;;2.00;0.50;;;;;;;;;;5055440;28;20052;-62
2022/01/05 09:16:07;;;;;;;1.10;0.43;;;;;;;;;;5048818;28;20281;-63
2022/01/05 09:18:33;;;;;;;1.13;0.50;;;;;;;;;;5050592;28;20021;-63
2022/01/05 09:20:58;;;;;;;0.70;0.32;;;;;;;;;;5050364;28;20270;-63
2022/01/05 09:23:23;;;;;;;2.37;0.57;;;;;;;;;;5050882;28;20376;-62
2022/01/05 09:25:49;;;;;;;1.60;0.37;;;;;;;;;;5053019;28;20063;-62
2022/01/05 09:28:14;;;;;;;0.80;0.30;;;;;;;;;;5053550;28;20262;-63
2022/01/05 09:30:43;;;;;;;0.47;0.40;;;;;;;;;;5051970;28;20365;-63
2022/01/05 09:33:08;;;;;;;3.83;0.20;;;;;;;;;;5049158;28;20045;-64
2022/01/05 09:35:35;;;;;;;3.53;0.80;;;;;;;;;;5048369;28;20052;-65
2022/01/05 09:43:11;;;;;;;0.63;0.25;;;;;;;;;;5053753;28;20023;-63
2022/01/05 09:45:38;;;;;;;0.10;0.10;;;;;;;;;;5047201;28;20021;-61
2022/01/05 09:48:22;;;;;;;0.20;0.13;;;;;;;;;;5055003;28;20685;-62
2022/01/05 09:50:56;;;;;;;0.03;0.03;;;;;;;;;;5053273;28;20078;-63
2022/01/05 09:53:23;;;;;;;0.60;0.30;;;;;;;;;;5053047;28;20017;-62
2022/01/05 09:55:51;;;;;;;0.38;0.10;;;;;;;;;;5052952;28;20016;-62
2022/01/05 09:58:18;;;;;;;0.28;0.28;;;;;;;;;;5053271;28;20024;-62
2022/01/05 10:00:43;;;;;;;0.52;0.20;;;;;;;;;;5053367;28;20060;-62
2022/01/05 10:03:10;;;;;;;0.40;0.15;;;;;;;;;;5053225;28;20484;-63
2022/01/05 10:05:35;;;;;;;1.08;0.43;;;;;;;;;;5052164;28;20060;-62
2022/01/05 10:08:00;;;;;;;0.20;0.07;;;;;;;;;;5053038;28;20511;-62
2022/01/05 10:10:25;;;;;;;0.10;0.07;;;;;;;;;;5053052;28;20292;-62
2022/01/05 10:12:50;;;;;;;0.57;0.10;;;;;;;;;;5052988;28;20290;-63
2022/01/05 10:15:16;;;;;;;1.45;0.03;;;;;;;;;;5052890;28;20032;-63
2022/01/05 10:17:41;;;;;;;0.85;0.30;;;;;;;;;;5051699;28;20094;-63
2022/01/05 10:20:08;;;;;;;0.20;0.10;;;;;;;;;;5052782;28;20413;-63
2022/01/05 10:22:40;;;;;;;1.27;0.30;;;;;;;;;;5053189;28;20028;-62
2022/01/05 10:25:07;;;;;;;0.22;0.10;;;;;;;;;;5052639;28;20020;-61
2022/01/05 10:27:33;;;;;;;0.25;0.13;;;;;;;;;;5052693;28;20036;-62
2022/01/05 10:30:05;;;;;;;0.52;0.32;;;;;;;;;;5052589;28;20088;-63
2022/01/05 10:32:33;;;;;;;0.52;0.20;;;;;;;;;;5052722;28;20411;-62
2022/01/05 10:35:04;;;;;;;0.40;0.03;;;;;;;;;;5052520;28;20503;-63
2022/01/05 10:37:29;;;;;;;0.93;0.22;;;;;;;;;;5052564;28;20100;-62
2022/01/05 10:40:05;;;;;;;0.98;0.30;;;;;;;;;;5052461;28;20105;-63
2022/01/05 10:42:32;;;;;;;0.60;0.20;;;;;;;;;;5052640;28;20368;-63
2022/01/05 10:44:57;;;;;;;0.75;0.20;;;;;;;;;;5052356;28;20024;-64
2022/01/05 10:47:22;;;;;;;0.98;0.20;;;;;;;;;;5052018;28;20025;-63
2022/01/05 10:49:48;;;;;;;0.32;0.17;;;;;;;;;;5052350;28;20063;-62
2022/01/05 10:52:24;;;;;;;0.63;0.22;;;;;;;;;;5052432;28;20025;-63
2022/01/05 10:54:50;;;;;;;1.17;0.30;;;;;;;;;;5052359;28;20017;-62
2022/01/05 10:57:16;;;;;;;0.40;0.22;;;;;;;;;;5052248;28;20025;-62
2022/01/05 10:59:45;;;;;;;1.27;0.25;;;;;;;;;;5052239;28;20032;-61
2022/01/05 11:02:20;;;;;;;0.40;0.20;;;;;;;;;;5052323;28;20016;-61
2022/01/05 11:04:45;;;;;;;0.98;0.40;;;;;;;;;;5052149;28;20128;-62
2022/01/05 11:07:18;;;;;;;1.10;0.37;;;;;;;;;;5052502;28;20427;-63
2022/01/05 11:09:50;;;;;;;0.80;0.25;;;;;;;;;;5052159;28;20107;-63
2022/01/05 11:12:16;;;;;;;0.30;0.30;;;;;;;;;;5052219;28;20018;-63
2022/01/05 11:14:41;;;;;;;0.55;0.28;;;;;;;;;;5052322;28;20023;-63
2022/01/05 11:17:06;;;;;;;0.43;0.40;;;;;;;;;;5052078;28;20032;-62
2022/01/05 11:19:33;;;;;;;0.63;0.40;;;;;;;;;;5052041;28;20021;-62
2022/01/05 11:22:00;;;;;;;0.50;0.50;;;;;;;;;;5052209;28;20017;-64
2022/01/05 11:24:25;;;;;;;0.85;0.65;;;;;;;;;;5052673;28;20013;-62
2022/01/05 11:26:51;;;;;;;0.40;0.40;;;;;;;;;;5052104;28;20491;-62
2022/01/05 11:29:16;;;;;;;1.17;0.35;;;;;;;;;;5052239;28;20009;-62
2022/01/05 11:31:44;;;;;;;1.20;0.60;;;;;;;;;;5051994;28;20107;-63
2022/01/05 11:34:10;;;;;;;0.82;0.35;;;;;;;;;;5051944;28;20460;-63
2022/01/05 11:36:36;;;;;;;2.35;0.70;;;;;;;;;;5052049;28;20029;-62
2022/01/05 11:39:01;;;;;;;0.60;0.40;;;;;;;;;;5052172;28;20052;-62
2022/01/05 11:41:26;;;;;;;1.38;0.47;;;;;;;;;;5051841;28;20024;-62
2022/01/05 11:43:51;;;;;;;0.50;0.45;;;;;;;;;;5051873;28;20017;-62
2022/01/05 11:46:18;;;;;;;0.63;0.43;;;;;;;;;;5051903;28;20159;-63
2022/01/05 11:48:58;;;;;;;1.35;0.85;;;;;;;;;;5051955;28;20029;-63
2022/01/05 11:51:30;;;;;;;1.48;0.82;;;;;;;;;;5051692;28;20495;-63
2022/01/05 11:54:11;;;;;;;0.77;0.40;;;;;;;;;;5051695;28;20055;-63
2022/01/05 11:56:39;;;;;;;1.85;0.60;;;;;;;;;;5051841;28;20032;-66
2022/01/05 11:59:04;;;;;;;1.10;0.55;;;;;;;;;;5051559;28;20483;-62
2022/01/05 12:01:31;;;;;;;0.60;0.60;;;;;;;;;;5055453;28;20037;-62
2022/01/05 12:03:59;;;;;;;1.35;0.88;;;;;;;;;;5055180;28;20306;-62
2022/01/05 12:06:30;;;;;;;1.23;0.80;;;;;;;;;;5055436;28;20017;-62
2022/01/05 12:08:56;;;;;;;2.35;0.68;;;;;;;;;;5055311;28;20023;-63
2022/01/05 12:11:29;;;;;;;0.55;0.50;;;;;;;;;;5055185;28;20028;-62
2022/01/05 12:13:54;;;;;;;1.77;0.80;;;;;;;;;;5055310;28;20096;-61
2022/01/05 12:16:19;;;;;;;1.42;0.60;;;;;;;;;;5055362;28;20100;-62
2022/01/05 12:19:01;;;;;;;0.40;0.40;;;;;;;;;;5055595;28;20027;-62
2022/01/05 12:21:46;;;;;;;0.60;0.60;;;;;;;;;;5054996;28;20253;-63
2022/01/05 12:24:11;;;;;;;;;;;;;;;;;;5055819;28;20049;-63
2022/01/05 12:26:36;;;;;;;0.90;0.70;;;;;;;;;;5055146;28;20362;-63
2022/01/05 12:29:02;;;;;;;0.98;0.70;;;;;;;;;;5054939;28;20029;-62
2022/01/05 12:31:57;;;;;;;0.73;0.73;;;;;;;;;;5054796;28;20032;-62
2022/01/05 12:34:45;;;;;;;1.35;0.70;;;;;;;;;;5041634;28;20099;-61
2022/01/05 12:37:29;;;;;;;1.10;0.57;;;;;;;;;;5045488;28;20143;-63
2022/01/05 12:39:56;;;;;;;1.83;0.70;;;;;;;;;;5051924;28;20495;-63
2022/01/05 12:42:22;;;;;;;1.20;1.08;;;;;;;;;;5062307;28;20040;-62
2022/01/05 12:44:47;;;;;;;0.90;0.80;;;;;;;;;;5063479;28;20028;-62
2022/01/05 12:47:13;;;;;;;0.90;0.47;;;;;;;;;;5054360;28;20028;-62
2022/01/05 12:49:39;;;;;;;1.15;0.82;;;;;;;;;;5054314;28;20052;-63
2022/01/05 12:52:06;;;;;;;0.82;0.82;;;;;;;;;;5054414;28;20171;-62
2022/01/05 12:54:42;;;;;;;1.77;0.60;;;;;;;;;;5054231;28;20028;-63
2022/01/05 12:57:14;;;;;;;0.90;0.70;;;;;;;;;;5072357;28;20017;-62
2022/01/05 12:59:41;;;;;;;1.15;0.70;;;;;;;;;;5054390;28;20029;-62
2022/01/05 13:02:09;;;;;;;0.63;0.60;;;;;;;;;;5053350;28;20020;-63
2022/01/05 13:04:35;;;;;;;1.67;0.70;;;;;;;;;;5053827;28;20033;-63
2022/01/05 13:07:03;;;;;;;2.08;1.10;;;;;;;;;;5053780;28;20035;-63
2022/01/05 13:09:32;;;;;;;0.40;0.40;;;;;;;;;;5053696;28;20108;-63
2022/01/05 13:12:02;;;;;;;0.98;0.73;;;;;;;;;;5054028;28;20017;-62
2022/01/05 13:14:30;;;;;;;1.00;0.63;;;;;;;;;;5054136;28;20021;-62
2022/01/05 13:16:58;;;;;;;0.75;0.70;;;;;;;;;;5053956;28;20521;-63
2022/01/05 13:19:41;;;;;;;0.70;0.60;;;;;;;;;;5054011;28;20464;-63
2022/01/05 13:22:08;;;;;;;2.03;0.70;;;;;;;;;;5052944;28;20090;-63
2022/01/05 13:24:52;;;;;;;0.77;0.50;;;;;;;;;;5053843;28;20025;-63
2022/01/05 13:27:18;;;;;;;1.33;0.80;;;;;;;;;;5054125;28;20017;-62
2022/01/05 13:29:45;;;;;;;0.60;0.60;;;;;;;;;;5052436;28;20032;-62
2022/01/05 13:32:11;;;;;;;1.08;0.98;;;;;;;;;;5053741;28;20023;-62
2022/01/05 13:35:00;;;;;;;1.17;0.70;;;;;;;;;;5053712;28;20108;-62
2022/01/05 13:37:33;;;;;;;0.80;0.57;;;;;;;;;;5045230;28;20032;-62
2022/01/05 13:40:18;;;;;;;0.95;0.70;;;;;;;;;;5053561;28;20045;-62
2022/01/05 13:42:43;;;;;;;1.58;0.75;;;;;;;;;;5052422;28;20159;-62
2022/01/05 13:45:10;;;;;;;0.97;0.80;;;;;;;;;;5052259;28;20120;-63
2022/01/05 13:47:35;;;;;;;1.08;0.70;;;;;;;;;;5052709;28;20024;-63
2022/01/05 13:50:12;;;;;;;1.95;0.80;;;;;;;;;;5055521;28;20417;-62
2022/01/05 13:52:37;;;;;;;0.55;0.52;;;;;;;;;;5052278;28;20043;-61
2022/01/05 13:55:03;;;;;;;0.82;0.80;;;;;;;;;;5052784;28;20472;-63
2022/01/05 13:57:30;;;;;;;1.95;0.60;;;;;;;;;;5050813;28;20021;-63
2022/01/05 13:59:59;;;;;;;1.00;0.70;;;;;;;;;;5052075;28;20052;-63
2022/01/05 14:02:25;;;;;;;0.75;0.75;;;;;;;;;;5044099;28;20530;-63
2022/01/05 14:04:51;;;;;;;1.35;1.02;;;;;;;;;;5051919;28;20040;-64
2022/01/05 14:07:17;;;;;;;1.70;0.70;;;;;;;;;;5050770;28;20482;-64
2022/01/05 14:09:43;;;;;;;0.50;0.50;;;;;;;;;;5050659;28;20255;-63
2022/01/05 14:12:27;;;;;;;1.48;0.63;;;;;;;;;;5055579;28;20028;-62
2022/01/05 14:14:55;;;;;;;0.95;0.70;;;;;;;;;;5049671;28;20013;-63
2022/01/05 14:17:21;;;;;;;0.82;0.68;;;;;;;;;;5052183;28;20025;-63
2022/01/05 14:19:46;;;;;;;1.08;0.80;;;;;;;;;;5052042;28;20103;-63
2022/01/05 14:22:14;;;;;;;0.97;0.70;;;;;;;;;;5052073;28;20055;-62
2022/01/05 14:24:41;;;;;;;0.98;0.63;;;;;;;;;;5052009;28;20262;-63
2022/01/05 14:27:14;;;;;;;0.90;0.68;;;;;;;;;;5052690;28;20013;-62
2022/01/05 14:29:40;;;;;;;0.85;0.40;;;;;;;;;;5052194;28;20025;-62
2022/01/05 14:32:06;;;;;;;1.48;0.80;;;;;;;;;;5051814;28;20029;-63
2022/01/05 14:34:37;;;;;;;0.80;0.68;;;;;;;;;;5052192;28;20080;-62
2022/01/05 14:37:05;;;;;;;1.30;0.68;;;;;;;;;;5052262;28;20115;-63
2022/01/05 14:39:38;;;;;;;0.90;0.65;;;;;;;;;;5052321;28;20468;-63
2022/01/05 14:42:08;;;;;;;1.33;0.60;;;;;;;;;;5052400;28;20115;-63
2022/01/05 14:44:34;;;;;;;0.75;0.70;;;;;;;;;;5052005;28;20598;-62